Погода Султанрабатна 2 недели

Южно-Казахстанская область, Казахстан

13 - 26 июня
  • 13июня
    Сегодня
    +15°
    +30°
    Ясно и безоблачно
    ВремяПогодаТемператураВлажностьДавлениеВетер, м/сВероятность осадков
    02:00Ясно и безоблачно+19°C47 %688 мм3.6 м/с2 %
    05:00Ясно и безоблачно+17°C50 %688 мм3.5 м/с2 %
    08:00Ясно и безоблачно+24°C45 %690 мм2.2 м/с2 %
    11:00Ясно и безоблачно+28°C34 %690 мм3.2 м/с2 %
    14:00Ясно и безоблачно+29°C31 %690 мм4.0 м/с2 %
    17:00Ясно и безоблачно+28°C31 %690 мм4.2 м/с2 %
    20:00Ясно и безоблачно+23°C41 %689 мм3.4 м/с2 %
    23:00Ясно и безоблачно+19°C51 %688 мм2.8 м/с2 %
  • 14июня
    Пятница
    +16°
    +30°
    Ясно и безоблачно
    ВремяПогодаТемператураВлажностьДавлениеВетер, м/сВероятность осадков
    02:00Ясно и безоблачно+19°C50 %687 мм1.7 м/с2 %
    05:00Ясно и безоблачно+16°C60 %686 мм1.1 м/с2 %
    08:00Ясно и безоблачно+23°C47 %688 мм0.4 м/с2 %
    11:00Ясно и безоблачно+27°C34 %689 мм1.6 м/с2 %
    14:00Ясно и безоблачно+30°C30 %689 мм1.9 м/с3 %
    17:00Ясно и безоблачно+30°C30 %689 мм3.3 м/с4 %
    20:00Ясно и безоблачно+24°C44 %688 мм2.5 м/с2 %
    23:00Ясно и безоблачно+20°C51 %687 мм2.1 м/с2 %
  • 15июня
    Суббота
    +19°
    +32°
    Ясно и безоблачно
    ВремяПогодаТемператураВлажностьДавлениеВетер, м/сВероятность осадков
    02:00Ясно и безоблачно+18°C57 %686 мм1.5 м/с2 %
    05:00Ясно и безоблачно+17°C60 %686 мм1.3 м/с2 %
    08:00Ясно и безоблачно+26°C41 %688 мм0.4 м/с2 %
    11:00Ясно и безоблачно+29°C35 %689 мм1.7 м/с2 %
    14:00Ясно и безоблачно+31°C31 %689 мм1.6 м/с3 %
    17:00Ясно и безоблачно+32°C31 %689 мм1.7 м/с2 %
    20:00Ясно и безоблачно+28°C47 %688 мм1.6 м/с2 %
    23:00Ясно и безоблачно+22°C49 %687 мм2.3 м/с2 %
  • 16июня
    Воскресенье
    +21°
    +34°
    Облачно с прояснениями
    ВремяПогодаТемператураВлажностьДавлениеВетер, м/сВероятность осадков
    02:00Ясно и безоблачно+20°C49 %686 мм1.9 м/с2 %
    05:00Ясно и безоблачно+19°C42 %686 мм1.6 м/с2 %
    08:00Ясно и безоблачно+28°C37 %689 мм0.8 м/с2 %
    11:00Облачно с прояснениями+32°C27 %689 мм1.8 м/с2 %
    14:00Облачно с прояснениями+34°C25 %689 мм1.6 м/с2 %
    17:00Ясно и безоблачно+34°C26 %689 мм1.4 м/с2 %
    20:00Облачно с прояснениями+28°C48 %688 мм1.6 м/с2 %
    23:00Ясно и безоблачно+24°C46 %686 мм1.8 м/с2 %
Мы используем cookies
Соглашаюсь